sensor_id;sensor_type;location;lat;lon;timestamp;pressure;altitude;pressure_sealevel;temperature;humidity
75414;BME280;64758;52.122;5.404;2022-11-15T00:00:50;101090.03;;;6.56;99.33
75414;BME280;64758;52.122;5.404;2022-11-15T00:03:18;101084.22;;;6.53;99.35
75414;BME280;64758;52.122;5.404;2022-11-15T00:05:45;101084.22;;;6.53;99.91
75414;BME280;64758;52.122;5.404;2022-11-15T00:08:12;101092.31;;;6.51;100.00
75414;BME280;64758;52.122;5.404;2022-11-15T00:10:39;101102.19;;;6.49;100.00
75414;BME280;64758;52.122;5.404;2022-11-15T00:13:07;101094.94;;;6.51;100.00
75414;BME280;64758;52.122;5.404;2022-11-15T00:15:35;101083.41;;;6.52;100.00
75414;BME280;64758;52.122;5.404;2022-11-15T00:18:03;101088.19;;;6.57;100.00
75414;BME280;64758;52.122;5.404;2022-11-15T00:20:31;101082.47;;;6.61;100.00
75414;BME280;64758;52.122;5.404;2022-11-15T00:22:59;101085.13;;;6.61;100.00
75414;BME280;64758;52.122;5.404;2022-11-15T00:25:25;101082.97;;;6.65;100.00
75414;BME280;64758;52.122;5.404;2022-11-15T00:27:57;101078.38;;;6.67;100.00
75414;BME280;64758;52.122;5.404;2022-11-15T00:30:24;101083.50;;;6.68;100.00
75414;BME280;64758;52.122;5.404;2022-11-15T00:32:51;101071.13;;;6.69;100.00
75414;BME280;64758;52.122;5.404;2022-11-15T00:35:18;101076.28;;;6.70;100.00
75414;BME280;64758;52.122;5.404;2022-11-15T00:37:45;101078.06;;;6.70;100.00
75414;BME280;64758;52.122;5.404;2022-11-15T00:40:14;101081.25;;;6.73;100.00
75414;BME280;64758;52.122;5.404;2022-11-15T00:42:41;101079.41;;;6.74;100.00
75414;BME280;64758;52.122;5.404;2022-11-15T00:45:08;101075.66;;;6.76;100.00
75414;BME280;64758;52.122;5.404;2022-11-15T00:47:35;101081.75;;;6.77;100.00
75414;BME280;64758;52.122;5.404;2022-11-15T00:50:01;101086.88;;;6.78;100.00
75414;BME280;64758;52.122;5.404;2022-11-15T00:52:28;101081.44;;;6.80;100.00
75414;BME280;64758;52.122;5.404;2022-11-15T00:54:54;101075.84;;;6.83;100.00
75414;BME280;64758;52.122;5.404;2022-11-15T00:57:21;101062.63;;;6.83;100.00
75414;BME280;64758;52.122;5.404;2022-11-15T00:59:47;101058.69;;;6.87;100.00
75414;BME280;64758;52.122;5.404;2022-11-15T01:02:14;101061.88;;;6.90;100.00
75414;BME280;64758;52.122;5.404;2022-11-15T01:04:40;101052.97;;;6.91;100.00
75414;BME280;64758;52.122;5.404;2022-11-15T01:07:07;101043.06;;;6.93;100.00
75414;BME280;64758;52.122;5.404;2022-11-15T01:09:33;101046.38;;;6.95;100.00
75414;BME280;64758;52.122;5.404;2022-11-15T01:12:00;101049.50;;;6.99;100.00
75414;BME280;64758;52.122;5.404;2022-11-15T01:14:26;101052.81;;;7.01;100.00
75414;BME280;64758;52.122;5.404;2022-11-15T01:16:53;101050.72;;;7.04;100.00
75414;BME280;64758;52.122;5.404;2022-11-15T01:19:19;101044.44;;;7.05;100.00
75414;BME280;64758;52.122;5.404;2022-11-15T01:21:49;101034.56;;;7.07;100.00
75414;BME280;64758;52.122;5.404;2022-11-15T01:24:15;101037.69;;;7.11;100.00
75414;BME280;64758;52.122;5.404;2022-11-15T01:26:42;101035.56;;;7.14;100.00
75414;BME280;64758;52.122;5.404;2022-11-15T01:29:08;101034.41;;;7.17;100.00
75414;BME280;64758;52.122;5.404;2022-11-15T01:31:34;101035.75;;;7.21;100.00
75414;BME280;64758;52.122;5.404;2022-11-15T01:34:01;101034.75;;;7.22;100.00
75414;BME280;64758;52.122;5.404;2022-11-15T01:36:27;101032.78;;;7.24;100.00
75414;BME280;64758;52.122;5.404;2022-11-15T01:38:55;101023.88;;;7.25;100.00
75414;BME280;64758;52.122;5.404;2022-11-15T01:41:26;101019.44;;;7.25;100.00
75414;BME280;64758;52.122;5.404;2022-11-15T01:43:54;101025.53;;;7.26;100.00
75414;BME280;64758;52.122;5.404;2022-11-15T01:48:50;101018.47;;;7.34;100.00
75414;BME280;64758;52.122;5.404;2022-11-15T01:51:19;101026.22;;;7.36;100.00
75414;BME280;64758;52.122;5.404;2022-11-15T01:53:49;101017.97;;;7.39;100.00
75414;BME280;64758;52.122;5.404;2022-11-15T01:56:22;101011.38;;;7.43;100.00
75414;BME280;64758;52.122;5.404;2022-11-15T01:58:50;101011.06;;;7.46;100.00
75414;BME280;64758;52.122;5.404;2022-11-15T02:01:18;101015.19;;;7.48;100.00
75414;BME280;64758;52.122;5.404;2022-11-15T02:03:52;101017.00;;;7.48;100.00
75414;BME280;64758;52.122;5.404;2022-11-15T02:06:21;101006.94;;;7.51;100.00
75414;BME280;64758;52.122;5.404;2022-11-15T02:08:49;101012.06;;;7.53;100.00
75414;BME280;64758;52.122;5.404;2022-11-15T02:11:16;101002.81;;;7.56;100.00
75414;BME280;64758;52.122;5.404;2022-11-15T02:13:43;101009.44;;;7.60;100.00
75414;BME280;64758;52.122;5.404;2022-11-15T02:22:06;100991.59;;;7.70;100.00
75414;BME280;64758;52.122;5.404;2022-11-15T02:25:01;100986.78;;;7.74;100.00
75414;BME280;64758;52.122;5.404;2022-11-15T02:35:26;100977.06;;;7.90;100.00
75414;BME280;64758;52.122;5.404;2022-11-15T02:37:59;100963.50;;;7.93;100.00
75414;BME280;64758;52.122;5.404;2022-11-15T02:43:53;100958.03;;;8.03;100.00
75414;BME280;64758;52.122;5.404;2022-11-15T02:46:36;100957.69;;;8.06;100.00
75414;BME280;64758;52.122;5.404;2022-11-15T02:49:23;100944.47;;;8.06;100.00
75414;BME280;64758;52.122;5.404;2022-11-15T02:51:52;100946.63;;;8.10;100.00
75414;BME280;64758;52.122;5.404;2022-11-15T02:54:22;100951.25;;;8.16;100.00
75414;BME280;64758;52.122;5.404;2022-11-15T02:56:51;100943.81;;;8.20;100.00
75414;BME280;64758;52.122;5.404;2022-11-15T02:59:22;100940.69;;;8.24;100.00
75414;BME280;64758;52.122;5.404;2022-11-15T03:02:22;100938.72;;;8.26;100.00
75414;BME280;64758;52.122;5.404;2022-11-15T03:10:09;100920.16;;;8.34;100.00
75414;BME280;64758;52.122;5.404;2022-11-15T03:12:45;100928.09;;;8.34;100.00
75414;BME280;64758;52.122;5.404;2022-11-15T03:15:21;100932.88;;;8.39;100.00
75414;BME280;64758;52.122;5.404;2022-11-15T03:18:00;100934.38;;;8.41;100.00
75414;BME280;64758;52.122;5.404;2022-11-15T03:20:29;100928.88;;;8.43;100.00
75414;BME280;64758;52.122;5.404;2022-11-15T03:23:01;100926.09;;;8.44;100.00
75414;BME280;64758;52.122;5.404;2022-11-15T03:25:31;100928.41;;;8.47;100.00
75414;BME280;64758;52.122;5.404;2022-11-15T03:28:02;100929.53;;;8.53;100.00
75414;BME280;64758;52.122;5.404;2022-11-15T03:30:32;100939.75;;;8.56;100.00
75414;BME280;64758;52.122;5.404;2022-11-15T03:33:02;100927.03;;;8.59;100.00
75414;BME280;64758;52.122;5.404;2022-11-15T03:35:34;100938.28;;;8.61;100.00
75414;BME280;64758;52.122;5.404;2022-11-15T03:38:24;100937.59;;;8.67;100.00
75414;BME280;64758;52.122;5.404;2022-11-15T03:41:08;100935.94;;;8.66;100.00
75414;BME280;64758;52.122;5.404;2022-11-15T03:43:44;100927.31;;;8.72;100.00
75414;BME280;64758;52.122;5.404;2022-11-15T03:46:23;100935.72;;;8.76;100.00
75414;BME280;64758;52.122;5.404;2022-11-15T03:48:56;100924.97;;;8.77;100.00
75414;BME280;64758;52.122;5.404;2022-11-15T03:51:24;100925.28;;;8.82;100.00
75414;BME280;64758;52.122;5.404;2022-11-15T03:53:51;100930.22;;;8.85;100.00
75414;BME280;64758;52.122;5.404;2022-11-15T03:56:17;100932.19;;;8.91;100.00
75414;BME280;64758;52.122;5.404;2022-11-15T03:58:44;100928.16;;;8.95;100.00
75414;BME280;64758;52.122;5.404;2022-11-15T04:01:10;100928.47;;;9.00;100.00
75414;BME280;64758;52.122;5.404;2022-11-15T04:03:37;100918.53;;;9.02;100.00
75414;BME280;64758;52.122;5.404;2022-11-15T04:06:04;100923.47;;;9.05;100.00
75414;BME280;64758;52.122;5.404;2022-11-15T04:08:30;100929.06;;;9.10;100.00
75414;BME280;64758;52.122;5.404;2022-11-15T04:10:57;100931.38;;;9.13;100.00
75414;BME280;64758;52.122;5.404;2022-11-15T04:13:24;100926.72;;;9.15;100.00
75414;BME280;64758;52.122;5.404;2022-11-15T04:15:51;100921.91;;;9.18;100.00
75414;BME280;64758;52.122;5.404;2022-11-15T04:18:17;100924.38;;;9.20;100.00
75414;BME280;64758;52.122;5.404;2022-11-15T04:20:44;100925.69;;;9.24;100.00
75414;BME280;64758;52.122;5.404;2022-11-15T04:23:29;100922.38;;;9.22;100.00
75414;BME280;64758;52.122;5.404;2022-11-15T04:26:19;100916.72;;;9.25;100.00
75414;BME280;64758;52.122;5.404;2022-11-15T04:28:47;100911.72;;;9.30;100.00
75414;BME280;64758;52.122;5.404;2022-11-15T04:31:46;100909.56;;;9.33;100.00
75414;BME280;64758;52.122;5.404;2022-11-15T04:34:12;100903.25;;;9.34;100.00
75414;BME280;64758;52.122;5.404;2022-11-15T04:36:39;100909.84;;;9.38;100.00
75414;BME280;64758;52.122;5.404;2022-11-15T04:39:24;100907.00;;;9.40;100.00
75414;BME280;64758;52.122;5.404;2022-11-15T04:41:50;100909.97;;;9.45;100.00
75414;BME280;64758;52.122;5.404;2022-11-15T04:44:16;100906.97;;;9.48;100.00
75414;BME280;64758;52.122;5.404;2022-11-15T04:46:43;100910.59;;;9.47;100.00
75414;BME280;64758;52.122;5.404;2022-11-15T04:49:09;100910.44;;;9.48;100.00
75414;BME280;64758;52.122;5.404;2022-11-15T04:51:36;100908.44;;;9.50;100.00
75414;BME280;64758;52.122;5.404;2022-11-15T04:54:02;100906.59;;;9.51;100.00
75414;BME280;64758;52.122;5.404;2022-11-15T04:56:29;100901.28;;;9.51;100.00
75414;BME280;64758;52.122;5.404;2022-11-15T04:58:55;100908.25;;;9.52;100.00
75414;BME280;64758;52.122;5.404;2022-11-15T05:01:22;100906.25;;;9.54;100.00
75414;BME280;64758;52.122;5.404;2022-11-15T05:03:48;100898.66;;;9.51;100.00
75414;BME280;64758;52.122;5.404;2022-11-15T05:06:33;100901.78;;;9.54;100.00
75414;BME280;64758;52.122;5.404;2022-11-15T05:09:00;100904.25;;;9.56;100.00
75414;BME280;64758;52.122;5.404;2022-11-15T05:11:26;100911.84;;;9.59;100.00
75414;BME280;64758;52.122;5.404;2022-11-15T05:13:53;100901.44;;;9.57;100.00
75414;BME280;64758;52.122;5.404;2022-11-15T05:16:20;100902.25;;;9.58;100.00
75414;BME280;64758;52.122;5.404;2022-11-15T05:18:46;100924.94;;;9.60;100.00
75414;BME280;64758;52.122;5.404;2022-11-15T05:21:16;100920.44;;;9.61;100.00
75414;BME280;64758;52.122;5.404;2022-11-15T05:23:42;100922.28;;;9.60;100.00
75414;BME280;64758;52.122;5.404;2022-11-15T05:26:09;100921.44;;;9.60;100.00
75414;BME280;64758;52.122;5.404;2022-11-15T05:28:36;100920.44;;;9.61;100.00
75414;BME280;64758;52.122;5.404;2022-11-15T05:31:07;100926.75;;;9.60;100.00
75414;BME280;64758;52.122;5.404;2022-11-15T05:33:36;100922.75;;;9.64;100.00
75414;BME280;64758;52.122;5.404;2022-11-15T05:38:41;100918.72;;;9.68;100.00
75414;BME280;64758;52.122;5.404;2022-11-15T05:41:08;100916.06;;;9.68;100.00
75414;BME280;64758;52.122;5.404;2022-11-15T05:43:35;100928.34;;;9.69;100.00
75414;BME280;64758;52.122;5.404;2022-11-15T05:46:04;100923.31;;;9.74;100.00
75414;BME280;64758;52.122;5.404;2022-11-15T05:48:32;100925.81;;;9.75;100.00
75414;BME280;64758;52.122;5.404;2022-11-15T05:51:01;100924.63;;;9.78;100.00
75414;BME280;64758;52.122;5.404;2022-11-15T05:53:30;100932.84;;;9.83;100.00
75414;BME280;64758;52.122;5.404;2022-11-15T05:55:57;100936.16;;;9.85;100.00
75414;BME280;64758;52.122;5.404;2022-11-15T05:58:24;100935.81;;;9.88;100.00
75414;BME280;64758;52.122;5.404;2022-11-15T06:00:50;100934.78;;;9.89;100.00
75414;BME280;64758;52.122;5.404;2022-11-15T06:03:16;100928.31;;;9.91;100.00
75414;BME280;64758;52.122;5.404;2022-11-15T06:05:43;100926.97;;;9.95;100.00
75414;BME280;64758;52.122;5.404;2022-11-15T06:08:09;100927.78;;;9.96;100.00
75414;BME280;64758;52.122;5.404;2022-11-15T06:10:36;100933.41;;;10.01;100.00
75414;BME280;64758;52.122;5.404;2022-11-15T06:13:04;100935.88;;;10.02;100.00
75414;BME280;64758;52.122;5.404;2022-11-15T06:15:32;100942.66;;;10.05;100.00
75414;BME280;64758;52.122;5.404;2022-11-15T06:18:00;100931.66;;;10.08;100.00
75414;BME280;64758;52.122;5.404;2022-11-15T06:20:28;100939.09;;;10.12;100.00
75414;BME280;64758;52.122;5.404;2022-11-15T06:23:02;100945.22;;;10.13;100.00
75414;BME280;64758;52.122;5.404;2022-11-15T06:25:30;100947.72;;;10.14;100.00
75414;BME280;64758;52.122;5.404;2022-11-15T06:27:58;100944.88;;;10.15;100.00
75414;BME280;64758;52.122;5.404;2022-11-15T06:30:26;100956.97;;;10.18;100.00
75414;BME280;64758;52.122;5.404;2022-11-15T06:33:03;100948.16;;;10.17;100.00
75414;BME280;64758;52.122;5.404;2022-11-15T06:35:33;100958.63;;;10.19;100.00
75414;BME280;64758;52.122;5.404;2022-11-15T06:38:10;100947.00;;;10.20;100.00
75414;BME280;64758;52.122;5.404;2022-11-15T06:40:38;100956.41;;;10.22;100.00
75414;BME280;64758;52.122;5.404;2022-11-15T06:43:05;100940.47;;;10.22;100.00
75414;BME280;64758;52.122;5.404;2022-11-15T06:45:32;100936.97;;;10.22;100.00
75414;BME280;64758;52.122;5.404;2022-11-15T06:47:59;100945.59;;;10.24;100.00
75414;BME280;64758;52.122;5.404;2022-11-15T06:50:25;100945.78;;;10.22;100.00
75414;BME280;64758;52.122;5.404;2022-11-15T06:52:52;100948.59;;;10.21;100.00
75414;BME280;64758;52.122;5.404;2022-11-15T06:55:18;100952.09;;;10.21;100.00
75414;BME280;64758;52.122;5.404;2022-11-15T06:57:51;100970.69;;;10.21;100.00
75414;BME280;64758;52.122;5.404;2022-11-15T07:00:20;100966.19;;;10.22;100.00
75414;BME280;64758;52.122;5.404;2022-11-15T07:02:47;100969.03;;;10.20;100.00
75414;BME280;64758;52.122;5.404;2022-11-15T07:05:14;100967.03;;;10.22;100.00
75414;BME280;64758;52.122;5.404;2022-11-15T07:07:41;100976.44;;;10.25;100.00
75414;BME280;64758;52.122;5.404;2022-11-15T07:10:08;100967.47;;;10.26;100.00
75414;BME280;64758;52.122;5.404;2022-11-15T07:12:35;100971.97;;;10.25;100.00
75414;BME280;64758;52.122;5.404;2022-11-15T07:15:02;100975.44;;;10.26;100.00
75414;BME280;64758;52.122;5.404;2022-11-15T07:17:29;100978.72;;;10.28;100.00
75414;BME280;64758;52.122;5.404;2022-11-15T07:19:55;100984.69;;;10.30;100.00
75414;BME280;64758;52.122;5.404;2022-11-15T07:22:21;100981.03;;;10.31;100.00
75414;BME280;64758;52.122;5.404;2022-11-15T07:24:48;100981.88;;;10.31;100.00
75414;BME280;64758;52.122;5.404;2022-11-15T07:27:15;100986.19;;;10.32;100.00
75414;BME280;64758;52.122;5.404;2022-11-15T07:29:41;100981.66;;;10.33;100.00
75414;BME280;64758;52.122;5.404;2022-11-15T07:32:09;100977.38;;;10.32;100.00
75414;BME280;64758;52.122;5.404;2022-11-15T07:34:35;100972.91;;;10.32;100.00
75414;BME280;64758;52.122;5.404;2022-11-15T07:37:02;100976.19;;;10.34;100.00
75414;BME280;64758;52.122;5.404;2022-11-15T07:39:28;100979.50;;;10.36;100.00
75414;BME280;64758;52.122;5.404;2022-11-15T07:41:55;100986.63;;;10.36;100.00
75414;BME280;64758;52.122;5.404;2022-11-15T07:44:41;100980.13;;;10.38;100.00
75414;BME280;64758;52.122;5.404;2022-11-15T07:47:08;100980.31;;;10.37;100.00
75414;BME280;64758;52.122;5.404;2022-11-15T07:49:34;100975.47;;;10.40;100.00
75414;BME280;64758;52.122;5.404;2022-11-15T07:52:00;100969.16;;;10.41;100.00
75414;BME280;64758;52.122;5.404;2022-11-15T07:54:27;100977.94;;;10.42;100.00
75414;BME280;64758;52.122;5.404;2022-11-15T07:56:53;100964.84;;;10.40;100.00
75414;BME280;64758;52.122;5.404;2022-11-15T07:59:20;100963.84;;;10.41;100.00
75414;BME280;64758;52.122;5.404;2022-11-15T08:01:47;100975.13;;;10.43;100.00
75414;BME280;64758;52.122;5.404;2022-11-15T08:04:13;100962.84;;;10.42;100.00
75414;BME280;64758;52.122;5.404;2022-11-15T08:06:40;100956.16;;;10.46;100.00
75414;BME280;64758;52.122;5.404;2022-11-15T08:09:06;100966.59;;;10.48;100.00
75414;BME280;64758;52.122;5.404;2022-11-15T08:11:33;100957.44;;;10.50;100.00
75414;BME280;64758;52.122;5.404;2022-11-15T08:13:59;100958.09;;;10.52;100.00
75414;BME280;64758;52.122;5.404;2022-11-15T08:16:26;100953.41;;;10.54;100.00
75414;BME280;64758;52.122;5.404;2022-11-15T08:18:52;100951.56;;;10.55;100.00
75414;BME280;64758;52.122;5.404;2022-11-15T08:21:20;100963.03;;;10.55;100.00
75414;BME280;64758;52.122;5.404;2022-11-15T08:23:47;100956.88;;;10.55;100.00
75414;BME280;64758;52.122;5.404;2022-11-15T08:26:14;100964.97;;;10.61;100.00
75414;BME280;64758;52.122;5.404;2022-11-15T08:28:41;100959.28;;;10.64;100.00
75414;BME280;64758;52.122;5.404;2022-11-15T08:31:13;100955.41;;;10.67;100.00
75414;BME280;64758;52.122;5.404;2022-11-15T08:33:41;100957.34;;;10.73;100.00
75414;BME280;64758;52.122;5.404;2022-11-15T08:36:12;100951.38;;;10.71;100.00
75414;BME280;64758;52.122;5.404;2022-11-15T08:38:39;100951.22;;;10.72;100.00
75414;BME280;64758;52.122;5.404;2022-11-15T08:41:06;100949.38;;;10.73;100.00
75414;BME280;64758;52.122;5.404;2022-11-15T08:43:32;100945.16;;;10.78;100.00
75414;BME280;64758;52.122;5.404;2022-11-15T08:46:00;100926.09;;;10.75;100.00
75414;BME280;64758;52.122;5.404;2022-11-15T08:48:26;100925.56;;;10.79;100.00
75414;BME280;64758;52.122;5.404;2022-11-15T08:50:54;100935.81;;;10.82;100.00
75414;BME280;64758;52.122;5.404;2022-11-15T08:53:21;100932.94;;;10.84;100.00
75414;BME280;64758;52.122;5.404;2022-11-15T08:55:48;100933.44;;;10.87;100.00
75414;BME280;64758;52.122;5.404;2022-11-15T08:58:14;100941.03;;;10.90;100.00
75414;BME280;64758;52.122;5.404;2022-11-15T09:00:41;100930.66;;;10.95;100.00
75414;BME280;64758;52.122;5.404;2022-11-15T09:03:07;100932.56;;;11.01;100.00
75414;BME280;64758;52.122;5.404;2022-11-15T09:05:36;100929.16;;;11.07;100.00
75414;BME280;64758;52.122;5.404;2022-11-15T09:08:03;100930.63;;;11.10;100.00
75414;BME280;64758;52.122;5.404;2022-11-15T09:10:50;100927.03;;;11.17;100.00
75414;BME280;64758;52.122;5.404;2022-11-15T09:13:16;100927.94;;;11.24;100.00
75414;BME280;64758;52.122;5.404;2022-11-15T09:15:43;100931.91;;;11.35;100.00
75414;BME280;64758;52.122;5.404;2022-11-15T09:18:09;100919.78;;;11.46;100.00
75414;BME280;64758;52.122;5.404;2022-11-15T09:20:36;100921.75;;;11.59;100.00
75414;BME280;64758;52.122;5.404;2022-11-15T09:23:03;100918.31;;;11.65;100.00
75414;BME280;64758;52.122;5.404;2022-11-15T09:25:30;100924.66;;;11.64;100.00
75414;BME280;64758;52.122;5.404;2022-11-15T09:27:57;100913.88;;;11.51;100.00
75414;BME280;64758;52.122;5.404;2022-11-15T09:30:25;100907.53;;;11.52;100.00
75414;BME280;64758;52.122;5.404;2022-11-15T09:32:52;100919.28;;;11.57;100.00
75414;BME280;64758;52.122;5.404;2022-11-15T09:35:19;100922.47;;;11.53;98.95
75414;BME280;64758;52.122;5.404;2022-11-15T09:37:45;100912.31;;;11.56;98.64
75414;BME280;64758;52.122;5.404;2022-11-15T09:40:14;100914.50;;;11.53;97.88
75414;BME280;64758;52.122;5.404;2022-11-15T09:45:27;100911.47;;;11.35;96.81
75414;BME280;64758;52.122;5.404;2022-11-15T09:48:13;100905.59;;;11.39;96.61
75414;BME280;64758;52.122;5.404;2022-11-15T09:50:51;100897.81;;;11.38;96.27
75414;BME280;64758;52.122;5.404;2022-11-15T09:53:32;100898.88;;;11.43;95.83
75414;BME280;64758;52.122;5.404;2022-11-15T09:56:26;100901.19;;;11.53;95.15
75414;BME280;64758;52.122;5.404;2022-11-15T09:59:07;100903.50;;;11.56;94.57
75414;BME280;64758;52.122;5.404;2022-11-15T10:01:43;100908.69;;;11.64;94.29
75414;BME280;64758;52.122;5.404;2022-11-15T10:04:11;100899.69;;;11.65;93.50
75414;BME280;64758;52.122;5.404;2022-11-15T10:06:43;100903.00;;;11.67;92.31
75414;BME280;64758;52.122;5.404;2022-11-15T10:09:18;100900.53;;;11.65;92.19
75414;BME280;64758;52.122;5.404;2022-11-15T10:11:49;100893.63;;;11.71;92.72
75414;BME280;64758;52.122;5.404;2022-11-15T10:14:19;100897.13;;;11.71;91.41
75414;BME280;64758;52.122;5.404;2022-11-15T10:24:46;100884.97;;;11.62;89.84
75414;BME280;64758;52.122;5.404;2022-11-15T10:27:16;100892.34;;;11.67;89.55
75414;BME280;64758;52.122;5.404;2022-11-15T10:29:45;100878.28;;;11.73;89.29
75414;BME280;64758;52.122;5.404;2022-11-15T10:32:14;100876.88;;;11.77;89.46
75414;BME280;64758;52.122;5.404;2022-11-15T10:34:41;100873.44;;;11.83;88.01
75414;BME280;64758;52.122;5.404;2022-11-15T10:37:08;100873.41;;;11.76;87.08
75414;BME280;64758;52.122;5.404;2022-11-15T10:39:35;100867.06;;;11.77;87.15
75414;BME280;64758;52.122;5.404;2022-11-15T10:42:27;100858.50;;;11.82;87.59
75414;BME280;64758;52.122;5.404;2022-11-15T10:44:54;100851.09;;;11.77;87.97
75414;BME280;64758;52.122;5.404;2022-11-15T10:47:22;100856.22;;;11.79;87.87
75414;BME280;64758;52.122;5.404;2022-11-15T10:50:00;100862.16;;;11.81;87.52
75414;BME280;64758;52.122;5.404;2022-11-15T10:52:29;100850.50;;;11.82;86.90
75414;BME280;64758;52.122;5.404;2022-11-15T10:55:01;100834.84;;;11.93;86.89
75414;BME280;64758;52.122;5.404;2022-11-15T10:57:32;100830.72;;;11.91;86.82
75414;BME280;64758;52.122;5.404;2022-11-15T11:03:22;100828.38;;;12.09;85.99
75414;BME280;64758;52.122;5.404;2022-11-15T11:06:04;100824.31;;;12.13;85.63
75414;BME280;64758;52.122;5.404;2022-11-15T11:08:31;100808.78;;;12.23;85.32
75414;BME280;64758;52.122;5.404;2022-11-15T11:11:00;100811.69;;;12.28;85.31
75414;BME280;64758;52.122;5.404;2022-11-15T11:13:36;100814.41;;;12.41;84.80
75414;BME280;64758;52.122;5.404;2022-11-15T11:16:40;100823.88;;;12.50;84.97
75414;BME280;64758;52.122;5.404;2022-11-15T11:19:17;100813.03;;;12.58;84.06
75414;BME280;64758;52.122;5.404;2022-11-15T11:24:55;100819.56;;;12.42;83.42
75414;BME280;64758;52.122;5.404;2022-11-15T11:27:36;100812.59;;;12.41;83.44
75414;BME280;64758;52.122;5.404;2022-11-15T11:30:14;100804.78;;;12.40;83.06
75414;BME280;64758;52.122;5.404;2022-11-15T11:33:07;100802.69;;;12.29;83.63
75414;BME280;64758;52.122;5.404;2022-11-15T11:41:38;100804.03;;;12.12;83.61
75414;BME280;64758;52.122;5.404;2022-11-15T11:44:33;100794.38;;;12.11;83.99
75414;BME280;64758;52.122;5.404;2022-11-15T11:47:03;100791.78;;;12.17;83.13
75414;BME280;64758;52.122;5.404;2022-11-15T11:52:31;100782.66;;;12.39;81.59
75414;BME280;64758;52.122;5.404;2022-11-15T11:55:12;100782.31;;;12.55;80.55
75414;BME280;64758;52.122;5.404;2022-11-15T11:57:47;100773.28;;;12.63;79.93
75414;BME280;64758;52.122;5.404;2022-11-15T12:00:23;100760.41;;;12.72;80.16
75414;BME280;64758;52.122;5.404;2022-11-15T12:03:07;100755.50;;;12.82;80.38
75414;BME280;64758;52.122;5.404;2022-11-15T12:05:40;100748.13;;;12.84;78.87
75414;BME280;64758;52.122;5.404;2022-11-15T12:11:24;100730.09;;;12.86;76.81
75414;BME280;64758;52.122;5.404;2022-11-15T12:14:09;100749.00;;;12.91;77.92
75414;BME280;64758;52.122;5.404;2022-11-15T12:16:39;100737.66;;;12.83;76.29
75414;BME280;64758;52.122;5.404;2022-11-15T12:19:08;100734.97;;;12.83;76.17
75414;BME280;64758;52.122;5.404;2022-11-15T12:24:16;100728.22;;;12.80;76.57
75414;BME280;64758;52.122;5.404;2022-11-15T12:26:53;100717.56;;;12.80;75.51
75414;BME280;64758;52.122;5.404;2022-11-15T12:29:51;100706.28;;;12.85;76.41
75414;BME280;64758;52.122;5.404;2022-11-15T12:32:26;100697.06;;;12.87;74.99
75414;BME280;64758;52.122;5.404;2022-11-15T12:34:55;100693.63;;;12.93;74.97
75414;BME280;64758;52.122;5.404;2022-11-15T12:42:42;100683.16;;;13.11;74.16
75414;BME280;64758;52.122;5.404;2022-11-15T12:45:44;100682.31;;;13.11;74.06
75414;BME280;64758;52.122;5.404;2022-11-15T12:50:56;100670.00;;;13.23;74.51
75414;BME280;64758;52.122;5.404;2022-11-15T13:06:57;100640.91;;;13.08;73.01
75414;BME280;64758;52.122;5.404;2022-11-15T13:14:51;100624.91;;;13.08;73.01
75414;BME280;64758;52.122;5.404;2022-11-15T13:19:53;100627.34;;;12.97;73.61
75414;BME280;64758;52.122;5.404;2022-11-15T13:22:23;100622.66;;;12.99;74.34
75414;BME280;64758;52.122;5.404;2022-11-15T13:30:48;100619.16;;;12.85;74.45
75414;BME280;64758;52.122;5.404;2022-11-15T13:33:19;100621.00;;;12.78;74.27
75414;BME280;64758;52.122;5.404;2022-11-15T13:35:48;100610.34;;;12.72;74.64
75414;BME280;64758;52.122;5.404;2022-11-15T13:40:51;100602.94;;;12.55;74.81
75414;BME280;64758;52.122;5.404;2022-11-15T13:43:27;100595.78;;;12.49;75.32
75414;BME280;64758;52.122;5.404;2022-11-15T13:46:11;100596.19;;;12.39;75.64
75414;BME280;64758;52.122;5.404;2022-11-15T13:48:40;100587.16;;;12.34;75.46
75414;BME280;64758;52.122;5.404;2022-11-15T13:56:47;100581.00;;;12.27;76.35
75414;BME280;64758;52.122;5.404;2022-11-15T13:59:24;100577.72;;;12.25;75.79
75414;BME280;64758;52.122;5.404;2022-11-15T14:01:53;100576.91;;;12.24;75.81
75414;BME280;64758;52.122;5.404;2022-11-15T14:04:22;100567.69;;;12.20;76.21
75414;BME280;64758;52.122;5.404;2022-11-15T14:06:52;100569.13;;;12.16;76.52
75414;BME280;64758;52.122;5.404;2022-11-15T14:11:53;100565.81;;;12.08;76.50
75414;BME280;64758;52.122;5.404;2022-11-15T14:14:22;100565.81;;;12.01;76.27
75414;BME280;64758;52.122;5.404;2022-11-15T14:16:52;100562.72;;;11.98;76.71
75414;BME280;64758;52.122;5.404;2022-11-15T14:24:46;100544.28;;;11.90;76.58
75414;BME280;64758;52.122;5.404;2022-11-15T14:27:31;100535.91;;;11.86;77.00
75414;BME280;64758;52.122;5.404;2022-11-15T14:29:59;100534.44;;;11.84;76.96
75414;BME280;64758;52.122;5.404;2022-11-15T14:32:28;100532.19;;;11.81;77.63
75414;BME280;64758;52.122;5.404;2022-11-15T14:34:58;100526.88;;;11.81;77.19
75414;BME280;64758;52.122;5.404;2022-11-15T14:37:30;100520.31;;;11.77;77.32
75414;BME280;64758;52.122;5.404;2022-11-15T14:40:03;100531.56;;;11.79;76.79
75414;BME280;64758;52.122;5.404;2022-11-15T14:42:30;100520.72;;;11.80;77.73
75414;BME280;64758;52.122;5.404;2022-11-15T14:44:57;100513.78;;;11.79;77.17
75414;BME280;64758;52.122;5.404;2022-11-15T14:47:24;100504.78;;;11.80;76.38
75414;BME280;64758;52.122;5.404;2022-11-15T14:49:50;100502.69;;;11.76;76.29
75414;BME280;64758;52.122;5.404;2022-11-15T14:52:25;100508.84;;;11.76;77.17
75414;BME280;64758;52.122;5.404;2022-11-15T14:54:59;100495.13;;;11.73;77.13